createdAt,value
2018-06-11T00:00:54.626Z,97400.00
2018-06-11T00:03:26.197Z,97403.00
2018-06-11T00:05:57.745Z,97403.00
2018-06-11T00:08:29.416Z,97399.00
2018-06-11T00:11:00.954Z,97397.00
2018-06-11T00:13:32.627Z,97403.00
2018-06-11T00:16:04.299Z,97400.00
2018-06-11T00:18:35.948Z,97394.00
2018-06-11T00:21:07.473Z,97396.00
2018-06-11T00:23:39.054Z,97404.00
2018-06-11T00:26:10.656Z,97407.00
2018-06-11T00:28:42.290Z,97407.00
2018-06-11T00:31:14.001Z,97407.00
2018-06-11T00:33:45.798Z,97411.00
2018-06-11T00:36:17.541Z,97409.00
2018-06-11T00:38:49.199Z,97409.00
2018-06-11T00:41:20.849Z,97410.00
2018-06-11T00:43:52.405Z,97410.00
2018-06-11T00:46:23.974Z,97409.00
2018-06-11T00:48:55.615Z,97407.00
2018-06-11T00:51:27.143Z,97410.00
2018-06-11T00:53:58.729Z,97404.00
2018-06-11T00:56:30.386Z,97404.00
2018-06-11T00:59:02.008Z,97406.00
2018-06-11T01:01:33.669Z,97404.00
2018-06-11T01:04:05.513Z,97403.00
2018-06-11T01:06:37.329Z,97404.00
2018-06-11T01:09:10.105Z,97406.00
2018-06-11T01:11:41.757Z,97408.00
2018-06-11T01:14:13.413Z,97413.00
2018-06-11T01:16:45.021Z,97410.00
2018-06-11T01:19:16.743Z,97410.00
2018-06-11T01:21:48.493Z,97410.00
2018-06-11T01:24:20.138Z,97422.00
2018-06-11T01:26:51.638Z,97423.00
2018-06-11T01:29:23.344Z,97421.00
2018-06-11T01:31:54.840Z,97414.00
2018-06-11T01:34:26.962Z,97418.00
2018-06-11T01:36:58.739Z,97401.00
2018-06-11T01:39:30.378Z,97393.00
2018-06-11T01:42:02.038Z,97398.00
2018-06-11T01:44:33.690Z,97403.00
2018-06-11T01:47:05.412Z,97398.00
2018-06-11T01:49:37.034Z,97393.00
2018-06-11T01:52:08.609Z,97398.00
2018-06-11T01:54:40.320Z,97399.00
2018-06-11T01:57:11.989Z,97403.00
2018-06-11T01:59:43.778Z,97401.00
2018-06-11T02:02:15.252Z,97399.00
2018-06-11T02:04:46.940Z,97397.00
2018-06-11T02:07:18.554Z,97394.00
2018-06-11T02:09:50.219Z,97393.00
2018-06-11T02:12:21.898Z,97389.00
2018-06-11T02:14:53.489Z,97392.00
2018-06-11T02:17:25.515Z,97394.00
2018-06-11T02:19:57.189Z,97393.00
2018-06-11T02:22:28.773Z,97394.00
2018-06-11T02:25:00.428Z,97392.00
2018-06-11T02:27:32.027Z,97389.00
2018-06-11T02:30:03.650Z,97389.00
2018-06-11T02:32:35.292Z,97395.00
2018-06-11T02:35:07.150Z,97392.00
2018-06-11T02:37:39.058Z,97392.00
2018-06-11T02:40:10.882Z,97392.00
2018-06-11T02:42:42.486Z,97392.00
2018-06-11T02:45:14.063Z,97392.00
2018-06-11T02:47:45.674Z,97398.00
2018-06-11T02:50:17.299Z,97394.00
2018-06-11T02:52:48.784Z,97392.00
2018-06-11T02:55:20.493Z,97396.00
2018-06-11T02:57:52.121Z,97391.00
2018-06-11T03:00:23.798Z,97391.00
2018-06-11T03:02:55.333Z,97390.00
2018-06-11T03:05:27.013Z,97391.00
2018-06-11T03:07:58.662Z,97384.00
2018-06-11T03:10:30.308Z,97379.00
2018-06-11T03:13:02.096Z,97385.00
2018-06-11T03:15:33.743Z,97383.00
2018-06-11T03:18:05.493Z,97385.00
2018-06-11T03:20:37.068Z,97386.00
2018-06-11T03:23:08.551Z,97377.00
2018-06-11T03:25:40.322Z,97372.00
2018-06-11T03:28:11.903Z,97374.00
2018-06-11T03:30:43.460Z,97378.00
2018-06-11T03:33:14.972Z,97374.00
2018-06-11T03:35:46.711Z,97377.00
2018-06-11T03:38:18.425Z,97381.00
2018-06-11T03:40:50.205Z,97383.00
2018-06-11T03:43:21.738Z,97378.00
2018-06-11T03:45:53.554Z,97376.00
2018-06-11T03:48:25.267Z,97380.00
2018-06-11T03:50:56.845Z,97383.00
2018-06-11T03:53:28.327Z,97376.00
2018-06-11T03:55:59.994Z,97383.00
2018-06-11T03:58:31.553Z,97383.00
2018-06-11T04:01:03.199Z,97378.00
2018-06-11T04:03:34.783Z,97378.00
2018-06-11T04:06:06.462Z,97376.00
2018-06-11T04:08:38.109Z,97373.00
2018-06-11T04:11:09.895Z,97374.00
2018-06-11T04:13:41.554Z,97372.00
2018-06-11T04:16:13.391Z,97369.00
2018-06-11T04:18:44.978Z,97370.00
2018-06-11T04:21:16.697Z,97376.00
2018-06-11T04:23:48.457Z,97370.00
2018-06-11T04:26:19.938Z,97376.00
2018-06-11T04:28:51.772Z,97377.00
2018-06-11T04:31:23.355Z,97370.00
2018-06-11T04:33:54.825Z,97375.00
2018-06-11T04:36:26.473Z,97364.00
2018-06-11T04:38:58.036Z,97366.00
2018-06-11T04:41:29.840Z,97370.00
2018-06-11T04:44:01.390Z,97372.00
2018-06-11T04:46:33.061Z,97374.00
2018-06-11T04:49:04.599Z,97380.00
2018-06-11T04:51:36.370Z,97385.00
2018-06-11T04:54:07.907Z,97390.00
2018-06-11T04:56:39.703Z,97384.00
2018-06-11T04:59:11.340Z,97392.00
2018-06-11T05:01:42.996Z,97385.00
2018-06-11T05:04:14.501Z,97382.00
2018-06-11T05:06:46.136Z,97384.00
2018-06-11T05:09:17.600Z,97386.00
2018-06-11T05:11:49.309Z,97382.00
2018-06-11T05:14:20.856Z,97386.00
2018-06-11T05:16:52.512Z,97383.00
2018-06-11T05:19:24.192Z,97385.00
2018-06-11T05:21:55.762Z,97382.00
2018-06-11T05:24:27.279Z,97381.00
2018-06-11T05:26:58.954Z,97384.00
2018-06-11T05:29:30.121Z,97377.00
2018-06-11T05:32:01.674Z,97374.00
2018-06-11T05:34:33.326Z,97376.00
2018-06-11T05:37:05.030Z,97374.00
2018-06-11T05:39:36.753Z,97371.00
2018-06-11T05:42:08.798Z,97370.00
2018-06-11T05:44:40.482Z,97366.00
2018-06-11T05:47:12.153Z,97361.00
2018-06-11T05:49:43.978Z,97360.00
2018-06-11T05:52:15.678Z,97352.00
2018-06-11T05:54:47.537Z,97345.00
2018-06-11T05:57:19.292Z,97346.00
2018-06-11T05:59:50.953Z,97346.00
2018-06-11T06:02:22.877Z,97349.00
2018-06-11T06:04:54.621Z,97349.00
2018-06-11T06:07:26.274Z,97349.00
2018-06-11T06:09:57.825Z,97351.00
2018-06-11T06:12:29.369Z,97346.00
2018-06-11T06:15:01.137Z,97346.00
2018-06-11T06:17:32.798Z,97356.00
2018-06-11T06:20:04.552Z,97352.00
2018-06-11T06:22:36.215Z,97350.00
2018-06-11T06:25:07.769Z,97352.00
2018-06-11T06:27:39.422Z,97353.00
2018-06-11T06:30:10.974Z,97353.00
2018-06-11T06:32:42.679Z,97357.00
2018-06-11T06:35:14.392Z,97356.00
2018-06-11T06:37:46.106Z,97350.00
2018-06-11T06:40:17.722Z,97345.00
2018-06-11T06:42:49.354Z,97345.00
2018-06-11T06:45:21.105Z,97346.00
2018-06-11T06:47:52.689Z,97345.00
2018-06-11T06:50:24.381Z,97350.00
2018-06-11T06:52:55.998Z,97354.00
2018-06-11T06:55:27.530Z,97352.00
2018-06-11T06:57:59.198Z,97351.00
2018-06-11T07:00:30.791Z,97359.00
2018-06-11T07:03:02.389Z,97358.00
2018-06-11T07:05:34.053Z,97360.00
2018-06-11T07:08:05.681Z,97365.00
2018-06-11T07:10:37.447Z,97360.00
2018-06-11T07:13:09.193Z,97355.00
2018-06-11T07:15:40.918Z,97360.00
2018-06-11T07:18:12.472Z,97356.00
2018-06-11T07:20:44.102Z,97356.00
2018-06-11T07:23:15.674Z,97354.00
2018-06-11T07:25:47.312Z,97352.00
2018-06-11T07:28:18.899Z,97345.00
2018-06-11T07:30:50.621Z,97348.00
2018-06-11T07:33:22.205Z,97352.00
2018-06-11T07:35:53.868Z,97355.00
2018-06-11T07:38:25.697Z,97355.00
2018-06-11T07:40:57.323Z,97360.00
2018-06-11T07:43:28.890Z,97353.00
2018-06-11T07:46:00.571Z,97355.00
2018-06-11T07:48:32.260Z,97353.00
2018-06-11T07:51:03.888Z,97347.00
2018-06-11T07:53:35.636Z,97343.00
2018-06-11T07:56:07.495Z,97348.00
2018-06-11T07:58:39.086Z,97342.00
2018-06-11T08:01:10.664Z,97336.00
2018-06-11T08:03:42.468Z,97343.00
2018-06-11T08:06:14.005Z,97346.00
2018-06-11T08:08:45.569Z,97344.00
2018-06-11T08:11:17.236Z,97340.00
2018-06-11T08:13:48.895Z,97344.00
2018-06-11T08:16:20.469Z,97338.00
2018-06-11T08:18:51.993Z,97340.00
2018-06-11T08:21:23.558Z,97332.00
2018-06-11T08:23:55.213Z,97323.00
2018-06-11T08:26:26.893Z,97321.00
2018-06-11T08:28:58.521Z,97319.00
2018-06-11T08:31:30.178Z,97319.00
2018-06-11T08:34:01.843Z,97328.00
2018-06-11T08:36:33.493Z,97327.00
2018-06-11T08:39:07.045Z,97324.00
2018-06-11T08:41:38.753Z,97320.00
2018-06-11T08:44:10.325Z,97318.00
2018-06-11T08:46:42.079Z,97313.00
2018-06-11T08:49:13.654Z,97308.00
2018-06-11T08:51:45.386Z,97303.00
2018-06-11T08:54:17.037Z,97292.00
2018-06-11T08:56:48.650Z,97292.00
2018-06-11T08:59:20.604Z,97289.00
2018-06-11T09:01:52.349Z,97291.00
2018-06-11T09:04:24.273Z,97289.00
2018-06-11T09:06:56.034Z,97291.00
2018-06-11T09:09:27.618Z,97282.00
2018-06-11T09:11:59.235Z,97282.00
2018-06-11T09:14:30.900Z,97282.00
2018-06-11T09:17:02.583Z,97277.00
2018-06-11T09:19:34.002Z,97275.00
2018-06-11T09:22:05.660Z,97265.00
2018-06-11T09:24:37.212Z,97261.00
2018-06-11T09:27:08.976Z,97259.00
2018-06-11T09:29:40.530Z,97253.00
2018-06-11T09:32:12.286Z,97251.00
2018-06-11T09:34:43.869Z,97252.00
2018-06-11T09:37:15.613Z,97252.00
2018-06-11T09:39:47.254Z,97249.00
2018-06-11T09:42:18.837Z,97249.00
2018-06-11T09:44:50.665Z,97255.00
2018-06-11T09:47:21.796Z,97254.00
2018-06-11T09:49:53.201Z,97253.00
2018-06-11T09:52:24.813Z,97247.00
2018-06-11T09:54:56.364Z,97239.00
2018-06-11T09:57:28.097Z,97236.00
2018-06-11T09:59:59.832Z,97227.00
2018-06-11T10:02:31.625Z,97231.00
2018-06-11T10:05:03.232Z,97233.00
2018-06-11T10:07:34.857Z,97231.00
2018-06-11T10:10:06.647Z,97228.00
2018-06-11T10:12:38.169Z,97228.00
2018-06-11T10:15:09.725Z,97232.00
2018-06-11T10:17:41.380Z,97245.00
2018-06-11T10:20:12.971Z,97245.00
2018-06-11T10:22:44.619Z,97246.00
2018-06-11T10:25:16.172Z,97253.00
2018-06-11T10:27:47.686Z,97251.00
2018-06-11T10:30:19.368Z,97243.00
2018-06-11T10:32:50.942Z,97236.00
2018-06-11T10:35:22.458Z,97231.00
2018-06-11T10:37:54.133Z,97232.00
2018-06-11T10:40:25.885Z,97235.00
2018-06-11T10:42:57.548Z,97246.00
2018-06-11T10:45:29.160Z,97252.00
2018-06-11T10:48:00.786Z,97267.00
2018-06-11T10:50:32.527Z,97269.00
2018-06-11T10:53:03.627Z,97273.00
2018-06-11T10:55:35.636Z,97281.00
2018-06-11T10:58:07.373Z,97282.00
2018-06-11T11:00:39.387Z,97285.00
2018-06-11T11:03:11.113Z,97284.00
2018-06-11T11:05:43.109Z,97290.00
2018-06-11T11:08:15.336Z,97284.00
2018-06-11T11:10:47.468Z,97267.00
2018-06-11T11:13:19.333Z,97264.00
2018-06-11T11:15:50.941Z,97259.00
2018-06-11T11:18:22.492Z,97249.00
2018-06-11T11:20:54.070Z,97241.00
2018-06-11T11:23:25.680Z,97238.00
2018-06-11T11:25:57.357Z,97235.00
2018-06-11T11:28:28.920Z,97228.00
2018-06-11T11:31:00.478Z,97216.00
2018-06-11T11:33:32.241Z,97209.00
2018-06-11T11:36:04.023Z,97203.00
2018-06-11T11:38:35.628Z,97201.00
2018-06-11T11:41:07.281Z,97200.00
2018-06-11T11:43:38.931Z,97202.00
2018-06-11T11:46:10.504Z,97207.00
2018-06-11T11:48:42.176Z,97206.00
2018-06-11T11:51:13.915Z,97205.00
2018-06-11T11:53:45.670Z,97203.00
2018-06-11T11:56:17.355Z,97201.00
2018-06-11T11:58:49.000Z,97194.00
2018-06-11T12:01:20.646Z,97186.00
2018-06-11T12:03:52.207Z,97181.00
2018-06-11T12:06:23.856Z,97177.00
2018-06-11T12:08:55.385Z,97167.00
2018-06-11T12:11:27.044Z,97163.00
2018-06-11T12:13:58.809Z,97164.00
2018-06-11T12:16:30.388Z,97161.00
2018-06-11T12:19:02.100Z,97159.00
2018-06-11T12:21:36.372Z,97157.00
2018-06-11T12:24:17.265Z,97156.00
2018-06-11T12:26:56.130Z,97160.00
2018-06-11T12:29:33.611Z,97155.00
2018-06-11T12:32:05.917Z,97156.00
2018-06-11T12:34:37.550Z,97147.00
2018-06-11T12:37:09.145Z,97133.00
2018-06-11T12:39:40.824Z,97116.00
2018-06-11T12:42:12.546Z,97111.00
2018-06-11T12:44:44.180Z,97112.00
2018-06-11T12:47:15.773Z,97121.00
2018-06-11T12:49:47.397Z,97128.00
2018-06-11T12:52:19.052Z,97145.00
2018-06-11T12:54:50.639Z,97168.00
2018-06-11T12:57:22.253Z,97182.00
2018-06-11T12:59:53.824Z,97190.00
2018-06-11T13:02:25.483Z,97173.00
2018-06-11T13:04:57.133Z,97149.00
2018-06-11T13:07:28.888Z,97146.00
2018-06-11T13:10:00.648Z,97159.00
2018-06-11T13:12:32.433Z,97147.00
2018-06-11T13:15:04.074Z,97142.00
2018-06-11T13:17:35.643Z,97149.00
2018-06-11T13:20:07.178Z,97141.00
2018-06-11T13:22:38.814Z,97113.00
2018-06-11T13:25:10.488Z,97097.00
2018-06-11T13:27:42.067Z,97099.00
2018-06-11T13:30:13.860Z,97116.00
2018-06-11T13:32:45.513Z,97124.00
2018-06-11T13:35:17.114Z,97122.00
2018-06-11T13:37:48.762Z,97130.00
2018-06-11T13:40:20.340Z,97127.00
2018-06-11T13:42:52.033Z,97126.00
2018-06-11T13:45:23.664Z,97100.00
2018-06-11T13:47:55.389Z,97107.00
2018-06-11T13:50:27.055Z,97122.00
2018-06-11T13:52:58.598Z,97130.00
2018-06-11T13:55:30.258Z,97128.00
2018-06-11T13:58:02.242Z,97111.00
2018-06-11T14:00:33.947Z,97101.00
2018-06-11T14:03:05.854Z,97119.00
2018-06-11T14:05:37.441Z,97119.00
2018-06-11T14:08:09.197Z,97125.00
2018-06-11T14:10:40.846Z,97127.00
2018-06-11T14:13:12.608Z,97117.00
2018-06-11T14:15:44.240Z,97108.00
2018-06-11T14:18:15.901Z,97106.00
2018-06-11T14:20:47.542Z,97106.00
2018-06-11T14:23:19.026Z,97104.00
2018-06-11T14:25:50.680Z,97096.00
2018-06-11T14:28:22.438Z,97102.00
2018-06-11T14:30:54.006Z,97107.00
2018-06-11T14:33:25.722Z,97105.00
2018-06-11T14:35:57.369Z,97101.00
2018-06-11T14:38:28.930Z,97106.00
2018-06-11T14:41:00.659Z,97092.00
2018-06-11T14:43:32.274Z,97095.00
2018-06-11T14:46:03.921Z,97099.00
2018-06-11T14:48:35.612Z,97109.00
2018-06-11T14:51:07.350Z,97099.00
2018-06-11T14:53:39.010Z,97100.00
2018-06-11T14:56:10.617Z,97100.00
2018-06-11T14:58:42.290Z,97092.00
2018-06-11T15:01:13.905Z,97088.00
2018-06-11T15:03:45.648Z,97082.00
2018-06-11T15:06:17.357Z,97083.00
2018-06-11T15:08:48.928Z,97075.00
2018-06-11T15:11:20.584Z,97083.00
2018-06-11T15:13:52.528Z,97080.00
2018-06-11T15:16:24.342Z,97073.00
2018-06-11T15:18:56.253Z,97069.00
2018-06-11T15:21:27.902Z,97073.00
2018-06-11T15:23:59.461Z,97080.00
2018-06-11T15:26:31.190Z,97070.00
2018-06-11T15:29:02.889Z,97063.00
2018-06-11T15:31:34.440Z,97051.00
2018-06-11T15:34:06.144Z,97029.00
2018-06-11T15:36:37.672Z,97011.00
2018-06-11T15:39:10.128Z,97004.00
2018-06-11T15:41:41.682Z,96998.00
2018-06-11T15:44:13.367Z,96997.00
2018-06-11T15:46:44.973Z,96994.00
2018-06-11T15:49:16.649Z,96999.00
2018-06-11T15:51:48.210Z,97005.00
2018-06-11T15:54:19.759Z,97006.00
2018-06-11T15:56:51.110Z,97010.00
2018-06-11T15:59:22.586Z,97016.00
2018-06-11T16:01:54.311Z,97030.00
2018-06-11T16:04:25.992Z,97034.00
2018-06-11T16:06:57.557Z,97029.00
2018-06-11T16:09:29.444Z,97024.00
2018-06-11T16:12:01.621Z,97012.00
2018-06-11T16:14:33.476Z,97005.00
2018-06-11T16:17:05.331Z,97004.00
2018-06-11T16:19:37.041Z,97006.00
2018-06-11T16:22:08.797Z,96998.00
2018-06-11T16:24:40.471Z,96995.00
2018-06-11T16:27:12.118Z,97003.00
2018-06-11T16:29:43.663Z,97005.00
2018-06-11T16:32:15.236Z,96995.00
2018-06-11T16:34:46.774Z,96982.00
2018-06-11T16:37:18.429Z,96965.00
2018-06-11T16:39:50.083Z,96960.00
2018-06-11T16:42:21.243Z,96960.00
2018-06-11T16:44:52.593Z,96960.00
2018-06-11T16:47:24.339Z,96977.00
2018-06-11T16:49:55.452Z,96988.00
2018-06-11T16:52:27.033Z,96989.00
2018-06-11T16:54:58.581Z,96999.00
2018-06-11T16:57:30.284Z,96991.00
2018-06-11T17:00:02.186Z,96992.00
2018-06-11T17:02:33.917Z,96992.00
2018-06-11T17:05:05.730Z,96993.00
2018-06-11T17:07:37.313Z,96988.00
2018-06-11T17:10:08.965Z,96987.00
2018-06-11T17:12:40.590Z,96979.00
2018-06-11T17:15:12.294Z,96986.00
2018-06-11T17:17:44.014Z,96999.00
2018-06-11T17:20:15.880Z,97006.00
2018-06-11T17:22:47.831Z,97011.00
2018-06-11T17:25:19.633Z,97024.00
2018-06-11T17:27:51.341Z,97028.00
2018-06-11T17:30:22.910Z,97030.00
2018-06-11T17:32:54.602Z,97035.00
2018-06-11T17:35:26.309Z,97044.00
2018-06-11T17:37:57.958Z,97044.00
2018-06-11T17:40:29.636Z,97048.00
2018-06-11T17:43:01.387Z,97043.00
2018-06-11T17:45:32.979Z,97026.00
2018-06-11T17:48:04.769Z,97018.00
2018-06-11T17:50:39.325Z,97012.00
2018-06-11T17:53:10.811Z,97008.00
2018-06-11T17:55:42.550Z,97003.00
2018-06-11T17:58:14.119Z,97008.00
2018-06-11T18:00:45.657Z,97005.00
2018-06-11T18:03:17.225Z,97005.00
2018-06-11T18:05:48.765Z,96998.00
2018-06-11T18:08:20.407Z,96996.00
2018-06-11T18:10:52.124Z,96996.00
2018-06-11T18:13:23.821Z,97005.00
2018-06-11T18:15:55.367Z,97022.00
2018-06-11T18:18:27.046Z,97035.00
2018-06-11T18:20:58.761Z,97050.00
2018-06-11T18:23:30.448Z,97052.00
2018-06-11T18:26:02.022Z,97048.00
2018-06-11T18:28:33.766Z,97038.00
2018-06-11T18:31:05.521Z,97031.00
2018-06-11T18:33:37.189Z,97029.00
2018-06-11T18:36:08.761Z,97031.00
2018-06-11T18:38:40.391Z,97038.00
2018-06-11T18:41:12.046Z,97060.00
2018-06-11T18:43:43.597Z,97076.00
2018-06-11T18:46:15.273Z,97087.00
2018-06-11T18:48:46.860Z,97097.00
2018-06-11T18:51:18.580Z,97124.00
2018-06-11T18:53:50.237Z,97135.00
2018-06-11T18:56:21.785Z,97142.00
2018-06-11T18:58:53.381Z,97145.00
2018-06-11T19:01:25.053Z,97144.00
2018-06-11T19:03:56.680Z,97139.00
2018-06-11T19:06:28.331Z,97140.00
2018-06-11T19:09:00.165Z,97150.00
2018-06-11T19:11:31.338Z,97152.00
2018-06-11T19:14:02.978Z,97155.00
2018-06-11T19:16:34.633Z,97154.00
2018-06-11T19:19:05.813Z,97157.00
2018-06-11T19:21:37.493Z,97152.00
2018-06-11T19:24:09.262Z,97149.00
2018-06-11T19:26:40.881Z,97152.00
2018-06-11T19:29:12.638Z,97147.00
2018-06-11T19:31:44.574Z,97146.00
2018-06-11T19:34:16.523Z,97147.00
2018-06-11T19:36:48.215Z,97146.00
2018-06-11T19:39:20.044Z,97146.00
2018-06-11T19:41:51.705Z,97156.00
2018-06-11T19:44:23.254Z,97157.00
2018-06-11T19:46:54.917Z,97155.00
2018-06-11T19:49:26.453Z,97147.00
2018-06-11T19:51:58.115Z,97144.00
2018-06-11T19:54:29.712Z,97130.00
2018-06-11T19:57:01.434Z,97124.00
2018-06-11T19:59:33.010Z,97112.00
2018-06-11T20:02:05.050Z,97105.00
2018-06-11T20:04:36.809Z,97096.00
2018-06-11T20:07:08.418Z,97093.00
2018-06-11T20:09:40.044Z,97092.00
2018-06-11T20:12:11.750Z,97098.00
2018-06-11T20:14:43.370Z,97103.00
2018-06-11T20:17:14.980Z,97112.00
2018-06-11T20:19:46.649Z,97125.00
2018-06-11T20:22:18.248Z,97128.00
2018-06-11T20:24:50.005Z,97125.00
2018-06-11T20:27:21.736Z,97127.00
2018-06-11T20:29:53.486Z,97133.00
2018-06-11T20:32:25.331Z,97135.00
2018-06-11T20:34:56.993Z,97129.00
2018-06-11T20:37:28.581Z,97139.00
2018-06-11T20:40:00.395Z,97132.00
2018-06-11T20:42:32.117Z,97131.00
2018-06-11T20:45:03.850Z,97122.00
2018-06-11T20:47:35.492Z,97113.00
2018-06-11T20:50:07.174Z,97099.00
2018-06-11T20:52:38.785Z,97091.00
2018-06-11T20:55:10.661Z,97092.00
2018-06-11T20:57:42.233Z,97096.00
2018-06-11T21:00:13.869Z,97094.00
2018-06-11T21:02:45.536Z,97093.00
2018-06-11T21:05:17.337Z,97100.00
2018-06-11T21:07:49.105Z,97095.00
2018-06-11T21:10:20.808Z,97097.00
2018-06-11T21:12:52.463Z,97098.00
2018-06-11T21:15:24.140Z,97101.00
2018-06-11T21:17:55.873Z,97097.00
2018-06-11T21:20:27.595Z,97089.00
2018-06-11T21:22:59.210Z,97088.00
2018-06-11T21:25:30.937Z,97076.00
2018-06-11T21:28:02.914Z,97080.00
2018-06-11T21:30:34.591Z,97090.00
2018-06-11T21:33:06.221Z,97091.00
2018-06-11T21:35:37.882Z,97085.00
2018-06-11T21:38:09.532Z,97082.00
2018-06-11T21:40:41.088Z,97087.00
2018-06-11T21:43:12.668Z,97080.00
2018-06-11T21:45:44.304Z,97084.00
2018-06-11T21:48:16.158Z,97079.00
2018-06-11T21:50:47.824Z,97080.00
2018-06-11T21:53:19.409Z,97078.00
2018-06-11T21:55:51.085Z,97084.00
2018-06-11T21:58:22.719Z,97076.00
2018-06-11T22:00:54.391Z,97073.00
2018-06-11T22:03:26.111Z,97068.00
2018-06-11T22:05:57.789Z,97077.00
2018-06-11T22:08:29.332Z,97075.00
2018-06-11T22:11:00.899Z,97080.00
2018-06-11T22:13:32.509Z,97077.00
2018-06-11T22:16:04.076Z,97084.00
2018-06-11T22:18:35.738Z,97083.00
2018-06-11T22:21:07.393Z,97088.00
2018-06-11T22:23:38.933Z,97084.00
2018-06-11T22:26:10.608Z,97084.00
2018-06-11T22:28:42.177Z,97090.00
2018-06-11T22:31:14.011Z,97090.00
2018-06-11T22:33:46.076Z,97097.00
2018-06-11T22:36:18.033Z,97099.00
2018-06-11T22:38:49.790Z,97105.00
2018-06-11T22:41:21.498Z,97114.00
2018-06-11T22:43:53.108Z,97116.00
2018-06-11T22:46:24.865Z,97120.00
2018-06-11T22:48:56.405Z,97121.00
2018-06-11T22:51:28.081Z,97125.00
2018-06-11T22:53:59.801Z,97122.00
2018-06-11T22:56:31.459Z,97122.00
2018-06-11T22:59:03.259Z,97125.00
2018-06-11T23:01:34.916Z,97121.00
2018-06-11T23:04:06.594Z,97120.00
2018-06-11T23:06:38.244Z,97114.00
2018-06-11T23:09:10.186Z,97115.00
2018-06-11T23:11:41.846Z,97114.00
2018-06-11T23:14:13.500Z,97113.00
2018-06-11T23:16:45.173Z,97116.00
2018-06-11T23:19:16.747Z,97115.00
2018-06-11T23:21:48.562Z,97115.00
2018-06-11T23:24:20.225Z,97116.00
2018-06-11T23:26:51.988Z,97116.00
2018-06-11T23:29:23.654Z,97121.00
2018-06-11T23:31:55.221Z,97120.00
2018-06-11T23:34:26.371Z,97123.00
2018-06-11T23:36:57.896Z,97122.00
2018-06-11T23:39:29.759Z,97127.00
2018-06-11T23:42:01.333Z,97133.00
2018-06-11T23:44:32.973Z,97136.00
2018-06-11T23:47:04.549Z,97137.00
2018-06-11T23:49:36.064Z,97137.00
2018-06-11T23:52:07.735Z,97134.00
2018-06-11T23:54:39.319Z,97136.00
2018-06-11T23:57:11.051Z,97137.00
2018-06-11T23:59:42.625Z,97138.00
